Time;durP1;ratioP1;P1;durP2;ratioP2;P2;SDS_P1;SDS_P2;PMS_P1;PMS_P2;Temp;Humidity;BMP_temperature;BMP_pressure;BME280_temperature;BME280_humidity;BME280_pressure;Samples;Min_cycle;Max_cycle;Signal;HPM_P1;HPM_P2
2023/03/29 00:00:35;;;;;;;0.70;0.40;;;7.00;1.00;;;;;;5113798;28;20420;-62
2023/03/29 00:03:02;;;;;;;0.90;0.50;;;7.10;1.00;;;;;;5114550;28;20477;-61
2023/03/29 00:05:33;;;;;;;1.05;0.50;;;7.10;1.00;;;;;;5114188;28;20415;-62
2023/03/29 00:08:02;;;;;;;1.10;0.50;;;7.20;1.00;;;;;;5113731;28;20432;-61
2023/03/29 00:10:31;;;;;;;2.40;0.55;;;7.20;1.00;;;;;;5114460;28;20591;-62
2023/03/29 00:12:58;;;;;;;1.00;0.50;;;7.20;1.00;;;;;;5114143;28;20419;-62
2023/03/29 00:15:25;;;;;;;0.70;0.40;;;7.10;1.00;;;;;;5107942;28;20499;-62
2023/03/29 00:17:53;;;;;;;0.70;0.50;;;7.00;1.00;;;;;;5097770;28;20732;-62
2023/03/29 00:20:20;;;;;;;0.80;0.50;;;6.90;1.00;;;;;;5094812;28;20421;-62
2023/03/29 00:22:48;;;;;;;0.60;0.40;;;6.90;6.60;;;;;;5095661;28;20433;-62
2023/03/29 00:25:16;;;;;;;0.75;0.50;;;6.80;1.00;;;;;;5112419;28;20429;-62
2023/03/29 00:27:43;;;;;;;0.90;0.50;;;6.80;1.00;;;;;;5118336;28;20428;-62
2023/03/29 00:30:11;;;;;;;0.90;0.50;;;6.80;1.00;;;;;;5118859;28;20430;-62
2023/03/29 00:32:38;;;;;;;0.98;0.50;;;6.80;16.70;;;;;;5118591;28;20418;-62
2023/03/29 00:35:06;;;;;;;2.10;0.50;;;6.80;26.20;;;;;;5117982;28;20446;-63
2023/03/29 00:37:33;;;;;;;1.00;0.50;;;6.80;27.40;;;;;;5117193;28;20869;-63
2023/03/29 00:40:06;;;;;;;1.30;0.50;;;6.70;34.30;;;;;;5116707;28;20424;-63
2023/03/29 00:42:33;;;;;;;1.50;0.50;;;6.80;26.40;;;;;;5117342;28;20432;-62
2023/03/29 00:45:06;;;;;;;0.80;0.40;;;6.80;25.80;;;;;;5117937;28;20810;-62
2023/03/29 00:47:37;;;;;;;0.70;0.50;;;6.80;5.00;;;;;;5118176;28;20428;-62
2023/03/29 00:50:14;;;;;;;1.20;0.50;;;6.80;23.50;;;;;;5117842;28;20448;-62
2023/03/29 00:52:45;;;;;;;1.83;0.57;;;6.80;1.00;;;;;;5117244;28;20424;-62
2023/03/29 00:55:17;;;;;;;1.00;0.50;;;6.80;1.00;;;;;;5117561;28;20724;-64
2023/03/29 00:57:48;;;;;;;0.90;0.60;;;6.80;1.00;;;;;;5117546;28;20424;-62
2023/03/29 01:00:19;;;;;;;1.05;0.50;;;6.90;1.00;;;;;;5116817;28;20420;-63
2023/03/29 01:02:52;;;;;;;0.88;0.50;;;6.80;1.00;;;;;;5116340;28;20870;-61
2023/03/29 01:05:25;;;;;;;1.17;0.50;;;6.80;1.00;;;;;;5115917;28;20416;-62
2023/03/29 01:07:57;;;;;;;0.80;0.50;;;6.80;1.00;;;;;;5115822;28;20521;-64
2023/03/29 01:10:33;;;;;;;0.90;0.50;;;6.80;1.00;;;;;;5107486;28;20430;-62
2023/03/29 01:13:06;;;;;;;0.70;0.50;;;6.80;1.00;;;;;;5095946;28;20426;-63
2023/03/29 01:15:33;;;;;;;1.60;0.50;;;6.70;1.00;;;;;;5096356;28;20414;-63
2023/03/29 01:18:01;;;;;;;1.30;0.60;;;6.70;1.80;;;;;;5097067;28;20823;-63
2023/03/29 01:20:43;;;;;;;1.00;0.60;;;6.60;18.20;;;;;;5095907;28;20430;-63
2023/03/29 01:23:36;;;;;;;0.90;0.60;;;6.50;21.30;;;;;;5096784;28;20457;-62
2023/03/29 01:26:15;;;;;;;0.88;0.50;;;6.50;28.00;;;;;;5096743;28;20766;-62
2023/03/29 01:28:49;;;;;;;0.80;0.50;;;6.60;29.30;;;;;;5097511;28;20428;-62
2023/03/29 01:31:21;;;;;;;0.82;0.50;;;6.60;1.00;;;;;;5096534;28;20713;-62
2023/03/29 01:33:53;;;;;;;0.70;0.50;;;6.60;1.00;;;;;;5103498;28;20434;-62
2023/03/29 01:36:27;;;;;;;0.80;0.50;;;6.70;6.50;;;;;;5116924;28;20799;-63
2023/03/29 01:38:57;;;;;;;1.85;0.50;;;6.60;7.30;;;;;;5116849;28;20427;-63
2023/03/29 01:41:36;;;;;;;0.88;0.50;;;6.60;18.60;;;;;;5117189;28;20715;-63
2023/03/29 01:44:09;;;;;;;0.77;0.50;;;6.50;15.40;;;;;;5116957;28;20519;-62
2023/03/29 01:46:44;;;;;;;0.90;0.50;;;6.60;24.10;;;;;;5117124;28;20420;-63
2023/03/29 01:49:17;;;;;;;0.90;0.50;;;6.50;17.70;;;;;;5116847;28;20447;-62
2023/03/29 01:51:52;;;;;;;0.80;0.50;;;6.50;26.10;;;;;;5107673;28;20863;-63
2023/03/29 01:54:24;;;;;;;0.80;0.50;;;6.50;36.90;;;;;;5103451;28;20839;-62
2023/03/29 01:56:52;;;;;;;0.90;0.60;;;6.50;39.20;;;;;;5116685;28;20434;-61
2023/03/29 01:59:28;;;;;;;0.70;0.50;;;6.40;37.30;;;;;;5115763;28;20416;-62
2023/03/29 02:01:58;;;;;;;1.00;0.60;;;6.40;58.30;;;;;;5116759;28;20440;-62
2023/03/29 02:04:29;;;;;;;0.80;0.50;;;6.30;65.00;;;;;;5116789;28;20506;-62
2023/03/29 02:06:59;;;;;;;0.90;0.50;;;6.30;81.30;;;;;;5116666;28;20435;-62
2023/03/29 02:09:28;;;;;;;0.80;0.50;;;6.30;83.80;;;;;;5116994;28;20432;-61
2023/03/29 02:11:58;;;;;;;1.20;0.50;;;6.30;68.40;;;;;;5116441;28;20843;-62
2023/03/29 02:14:28;;;;;;;1.70;0.60;;;6.30;79.20;;;;;;5116533;28;20705;-62
2023/03/29 02:16:55;;;;;;;1.00;0.50;;;6.40;60.30;;;;;;5116857;28;20489;-62
2023/03/29 02:19:23;;;;;;;2.20;0.50;;;6.40;57.20;;;;;;5116020;28;20416;-63
2023/03/29 02:22:00;;;;;;;1.20;0.50;;;6.40;43.40;;;;;;5110743;28;20444;-63
2023/03/29 02:24:31;;;;;;;0.77;0.50;;;6.50;41.40;;;;;;5103041;28;20463;-62
2023/03/29 02:26:58;;;;;;;0.80;0.50;;;6.50;29.20;;;;;;5115843;28;20428;-63
2023/03/29 02:29:27;;;;;;;0.90;0.50;;;6.60;26.10;;;;;;5115653;28;20439;-62
2023/03/29 02:31:58;;;;;;;0.70;0.50;;;6.60;30.00;;;;;;5115022;28;20736;-62
2023/03/29 02:34:29;;;;;;;0.90;0.50;;;6.50;37.50;;;;;;5115760;28;20412;-62
2023/03/29 02:36:59;;;;;;;1.70;0.50;;;6.60;28.10;;;;;;5116163;28;20427;-62
2023/03/29 02:39:30;;;;;;;0.80;0.50;;;6.60;23.40;;;;;;5115674;28;20817;-62
2023/03/29 02:41:58;;;;;;;0.80;0.50;;;6.60;31.30;;;;;;5114851;28;20464;-62
2023/03/29 02:44:29;;;;;;;1.10;0.50;;;6.60;29.70;;;;;;5115686;28;20419;-62
2023/03/29 02:47:00;;;;;;;1.10;0.50;;;6.70;26.00;;;;;;5115592;28;20428;-62
2023/03/29 02:49:27;;;;;;;0.90;0.50;;;6.70;8.10;;;;;;5114283;28;20419;-62
2023/03/29 02:51:57;;;;;;;1.60;0.60;;;6.90;8.70;;;;;;5115061;28;20426;-62
2023/03/29 02:54:28;;;;;;;0.80;0.50;;;6.90;2.40;;;;;;5115717;28;20416;-62
2023/03/29 02:56:57;;;;;;;0.90;0.50;;;6.70;6.70;;;;;;5115287;28;20420;-62
2023/03/29 02:59:28;;;;;;;0.90;0.50;;;6.60;19.10;;;;;;5115236;28;20419;-62
2023/03/29 03:01:55;;;;;;;1.50;0.40;;;6.50;28.00;;;;;;5114465;28;20435;-62
2023/03/29 03:04:24;;;;;;;0.90;0.50;;;6.50;17.20;;;;;;5107859;28;20420;-62
2023/03/29 03:06:51;;;;;;;0.70;0.50;;;6.50;11.80;;;;;;5096738;28;20838;-62
2023/03/29 03:09:18;;;;;;;1.23;0.40;;;6.40;1.90;;;;;;5094025;28;20425;-62
2023/03/29 03:11:45;;;;;;;0.73;0.50;;;6.50;1.00;;;;;;5094343;28;20425;-62
2023/03/29 03:14:12;;;;;;;0.70;0.40;;;6.50;1.00;;;;;;5094720;28;20422;-62
2023/03/29 03:16:41;;;;;;;1.10;0.40;;;6.60;1.00;;;;;;5103106;28;20526;-59
2023/03/29 03:19:09;;;;;;;1.10;0.50;;;6.60;1.00;;;;;;5097414;28;20825;-62
2023/03/29 03:21:36;;;;;;;2.22;1.00;;;6.70;1.00;;;;;;5094324;28;20434;-62
2023/03/29 03:24:04;;;;;;;1.00;0.60;;;6.70;1.00;;;;;;5099668;28;20446;-61
2023/03/29 03:26:31;;;;;;;0.70;0.40;;;6.70;1.00;;;;;;5113885;28;20462;-62
2023/03/29 03:28:59;;;;;;;0.60;0.40;;;6.70;1.00;;;;;;5115279;28;20831;-61
2023/03/29 03:31:27;;;;;;;0.77;0.50;;;6.70;1.00;;;;;;5114782;28;20469;-62
2023/03/29 03:33:55;;;;;;;0.90;0.50;;;6.70;1.00;;;;;;5115527;28;20412;-62
2023/03/29 03:36:24;;;;;;;0.73;0.50;;;6.70;1.00;;;;;;5113881;28;20496;-62
2023/03/29 03:38:52;;;;;;;1.02;0.50;;;6.70;1.00;;;;;;5115087;28;20426;-61
2023/03/29 03:41:19;;;;;;;0.60;0.40;;;6.80;1.00;;;;;;5113688;28;20704;-62
2023/03/29 03:43:47;;;;;;;1.20;0.52;;;6.80;1.00;;;;;;5114105;28;20436;-63
2023/03/29 03:46:15;;;;;;;0.80;0.50;;;6.80;1.00;;;;;;5103955;28;20802;-62
2023/03/29 03:48:42;;;;;;;0.90;0.50;;;6.80;1.00;;;;;;5094213;28;20425;-61
2023/03/29 03:51:11;;;;;;;0.80;0.40;;;6.80;1.00;;;;;;5093995;28;20422;-62
2023/03/29 03:53:38;;;;;;;0.90;0.50;;;6.90;1.00;;;;;;5095694;28;20421;-62
2023/03/29 03:56:07;;;;;;;1.10;0.50;;;6.90;1.00;;;;;;5114680;28;20458;-61
2023/03/29 03:58:35;;;;;;;0.98;0.47;;;6.90;1.00;;;;;;5116910;28;20807;-61
2023/03/29 04:01:03;;;;;;;0.70;0.40;;;6.90;1.00;;;;;;5118445;28;20473;-61
2023/03/29 04:03:30;;;;;;;0.70;0.40;;;7.00;1.00;;;;;;5118674;28;20432;-62
2023/03/29 04:06:00;;;;;;;0.70;0.40;;;7.10;1.00;;;;;;5118709;28;20510;-61
2023/03/29 04:08:29;;;;;;;0.90;0.50;;;7.20;1.00;;;;;;5114433;28;20433;-61
2023/03/29 04:10:57;;;;;;;1.15;0.60;;;7.30;99.90;;;;;;5096291;28;20706;-61
2023/03/29 04:13:25;;;;;;;1.00;0.40;;;7.30;99.90;;;;;;5096227;28;20422;-61
2023/03/29 04:15:56;;;;;;;1.50;0.40;;;7.30;99.90;;;;;;5097631;28;20486;-60
2023/03/29 04:18:23;;;;;;;0.90;0.40;;;7.40;99.90;;;;;;5100054;28;20438;-61
2023/03/29 04:20:51;;;;;;;0.60;0.40;;;7.40;99.90;;;;;;5117633;28;20416;-61
2023/03/29 04:23:18;;;;;;;0.60;0.40;;;7.40;99.90;;;;;;5117772;28;20839;-61
2023/03/29 04:25:46;;;;;;;0.60;0.40;;;7.40;99.90;;;;;;5117392;28;20416;-62
2023/03/29 04:28:14;;;;;;;0.98;0.40;;;7.40;99.90;;;;;;5116307;27;20423;-61
2023/03/29 04:30:41;;;;;;;0.70;0.40;;;7.50;99.90;;;;;;5118519;28;20405;-62
2023/03/29 04:33:09;;;;;;;1.00;0.40;;;7.50;1.00;;;;;;5118158;28;20704;-61
2023/03/29 04:35:36;;;;;;;0.60;0.30;;;7.50;1.00;;;;;;5116429;28;20422;-61
2023/03/29 04:38:04;;;;;;;0.70;0.50;;;7.50;1.00;;;;;;5116283;28;20473;-62
2023/03/29 04:40:32;;;;;;;0.73;0.40;;;7.60;1.00;;;;;;5116483;28;20416;-61
2023/03/29 04:43:01;;;;;;;0.60;0.40;;;7.60;1.00;;;;;;5115877;28;20431;-61
2023/03/29 04:45:30;;;;;;;0.70;0.40;;;7.60;1.00;;;;;;5104854;28;20420;-62
2023/03/29 04:47:58;;;;;;;0.70;0.40;;;7.60;1.00;;;;;;5117155;28;20540;-61
2023/03/29 04:50:25;;;;;;;0.68;0.40;;;7.70;99.90;;;;;;5117667;28;20503;-62
2023/03/29 04:52:52;;;;;;;0.88;0.40;;;7.70;99.90;;;;;;5117071;28;20820;-61
2023/03/29 04:55:19;;;;;;;0.60;0.40;;;7.70;1.00;;;;;;5116554;28;20728;-62
2023/03/29 04:57:47;;;;;;;0.60;0.40;;;7.70;99.90;;;;;;5116325;28;20435;-61
2023/03/29 05:00:16;;;;;;;1.30;0.40;;;7.70;99.90;;;;;;5117602;28;20490;-62
2023/03/29 05:02:44;;;;;;;0.70;0.50;;;7.70;1.70;;;;;;5115634;28;20740;-62
2023/03/29 05:05:11;;;;;;;0.60;0.40;;;7.70;1.00;;;;;;5115232;28;20416;-62
2023/03/29 05:07:38;;;;;;;0.70;0.30;;;7.80;99.90;;;;;;5115094;28;20424;-62
2023/03/29 05:10:08;;;;;;;0.60;0.30;;;7.80;1.00;;;;;;5116066;28;20700;-59
2023/03/29 05:12:35;;;;;;;1.88;0.30;;;8.00;16.70;;;;;;5116211;28;20423;-60
2023/03/29 05:15:02;;;;;;;0.90;0.40;;;8.10;1.00;;;;;;5115209;28;20420;-60
2023/03/29 05:17:31;;;;;;;0.70;0.40;;;8.10;99.90;;;;;;5116383;28;20711;-60
2023/03/29 05:19:58;;;;;;;0.70;0.32;;;8.10;99.90;;;;;;5115113;28;20576;-61
2023/03/29 05:22:25;;;;;;;0.60;0.40;;;8.30;1.00;;;;;;5115240;28;20685;-61
2023/03/29 05:24:52;;;;;;;0.60;0.30;;;8.50;1.00;;;;;;5114605;28;20469;-61
2023/03/29 05:27:21;;;;;;;0.80;0.40;;;8.50;99.90;;;;;;5113497;28;20428;-61
2023/03/29 05:29:48;;;;;;;0.60;0.40;;;8.40;99.90;;;;;;5112807;28;20502;-61
2023/03/29 05:32:15;;;;;;;0.60;0.40;;;8.40;1.00;;;;;;5114923;28;20431;-60
2023/03/29 05:34:44;;;;;;;0.60;0.30;;;8.30;99.90;;;;;;5114827;28;20777;-60
2023/03/29 05:37:12;;;;;;;0.80;0.40;;;8.30;99.90;;;;;;5115564;28;20424;-60
2023/03/29 05:39:39;;;;;;;1.90;0.30;;;8.20;99.90;;;;;;5113588;28;20422;-60
2023/03/29 05:42:06;;;;;;;0.60;0.32;;;8.20;1.00;;;;;;5114869;28;20715;-60
2023/03/29 05:44:33;;;;;;;0.50;0.30;;;8.20;1.00;;;;;;5113751;28;20436;-60
2023/03/29 05:47:00;;;;;;;0.90;0.50;;;8.20;99.90;;;;;;5113673;28;20865;-60
2023/03/29 05:56:32;;;;;;;0.90;0.50;;;8.20;92.90;;;;;;5091647;28;20709;-60
2023/03/29 05:59:00;;;;;;;1.00;0.40;;;8.20;99.90;;;;;;5093895;28;20887;-60
2023/03/29 06:01:28;;;;;;;1.00;0.40;;;8.20;99.90;;;;;;5100809;28;20430;-61
2023/03/29 06:03:56;;;;;;;0.93;0.40;;;8.30;99.90;;;;;;5091610;28;20466;-60
2023/03/29 06:06:23;;;;;;;0.70;0.30;;;8.30;99.90;;;;;;5092641;28;20433;-60
2023/03/29 06:08:50;;;;;;;1.10;0.40;;;8.30;99.90;;;;;;5090354;28;20706;-60
2023/03/29 06:11:17;;;;;;;1.15;0.40;;;8.30;1.00;;;;;;5090363;28;20429;-60
2023/03/29 06:13:46;;;;;;;0.80;0.30;;;8.40;99.90;;;;;;5089645;28;20425;-59
2023/03/29 06:16:13;;;;;;;0.80;0.40;;;8.40;99.90;;;;;;5088838;28;20444;-59
2023/03/29 06:18:41;;;;;;;1.20;0.40;;;8.40;1.00;;;;;;5089682;28;20433;-59
2023/03/29 06:21:09;;;;;;;0.68;0.40;;;8.40;66.00;;;;;;5089962;28;20433;-59
2023/03/29 06:23:36;;;;;;;0.70;0.40;;;8.40;1.00;;;;;;5090855;28;20428;-59
2023/03/29 06:26:04;;;;;;;0.80;0.40;;;8.50;81.80;;;;;;5093978;28;20518;-59
2023/03/29 06:28:31;;;;;;;1.10;0.40;;;8.60;1.00;;;;;;5099877;28;20451;-60
2023/03/29 06:31:01;;;;;;;1.00;0.50;;;8.70;73.70;;;;;;5095045;28;20509;-60
2023/03/29 06:33:29;;;;;;;0.70;0.40;;;8.80;96.20;;;;;;5089591;28;20410;-59
2023/03/29 06:35:57;;;;;;;0.75;0.40;;;9.00;99.90;;;;;;5091086;28;20528;-59
2023/03/29 06:38:25;;;;;;;0.77;0.50;;;9.10;1.00;;;;;;5092511;28;20851;-59
2023/03/29 06:40:59;;;;;;;0.40;0.30;;;9.30;1.00;;;;;;5101860;28;20855;-58
2023/03/29 06:43:26;;;;;;;0.70;0.30;;;9.60;48.30;;;;;;5112952;28;20428;-59
2023/03/29 06:45:54;;;;;;;0.88;0.30;;;10.10;99.90;;;;;;5111283;28;20431;-60
2023/03/29 06:48:23;;;;;;;0.60;0.30;;;10.30;1.00;;;;;;5110503;28;20439;-59
2023/03/29 06:50:51;;;;;;;0.70;0.40;;;10.20;1.00;;;;;;5107973;28;21097;-59
2023/03/29 06:53:18;;;;;;;0.82;0.40;;;10.10;1.00;;;;;;5113724;28;20412;-58
2023/03/29 06:55:46;;;;;;;1.00;0.40;;;10.00;1.00;;;;;;5100223;28;20500;-58
2023/03/29 06:58:14;;;;;;;0.75;0.40;;;9.90;1.00;;;;;;5093721;28;20476;-59
2023/03/29 07:00:41;;;;;;;0.98;0.40;;;9.90;1.00;;;;;;5097630;28;20438;-59
2023/03/29 07:03:12;;;;;;;0.90;0.30;;;9.90;1.00;;;;;;5097701;28;20430;-58
2023/03/29 07:05:40;;;;;;;1.10;0.40;;;9.90;1.00;;;;;;5111092;28;20424;-59
2023/03/29 07:08:12;;;;;;;1.30;0.40;;;9.90;1.00;;;;;;5103833;28;20482;-58
2023/03/29 07:10:41;;;;;;;0.93;0.40;;;9.90;1.00;;;;;;5099263;28;20848;-58
2023/03/29 07:13:11;;;;;;;0.90;0.30;;;10.00;1.00;;;;;;5104512;28;20458;-58
2023/03/29 07:15:38;;;;;;;1.40;0.40;;;10.00;1.00;;;;;;5109014;28;20988;-59
2023/03/29 07:18:05;;;;;;;0.65;0.30;;;10.00;1.00;;;;;;5094344;28;20437;-58
2023/03/29 07:20:32;;;;;;;0.50;0.30;;;10.10;1.00;;;;;;5099315;28;20705;-58
2023/03/29 07:23:01;;;;;;;0.60;0.30;;;10.10;1.00;;;;;;5093215;28;20940;-58
2023/03/29 07:25:28;;;;;;;1.00;0.40;;;10.20;1.00;;;;;;5101197;28;20440;-58
2023/03/29 07:27:55;;;;;;;0.60;0.30;;;10.30;1.00;;;;;;5111192;28;20801;-58
2023/03/29 07:30:26;;;;;;;0.97;0.50;;;10.40;1.00;;;;;;5110876;28;20474;-58
2023/03/29 07:32:54;;;;;;;1.80;1.00;;;10.40;1.00;;;;;;5101410;28;20840;-57
2023/03/29 07:35:22;;;;;;;0.85;0.45;;;10.50;1.00;;;;;;5093292;28;20438;-58
2023/03/29 07:37:49;;;;;;;0.80;0.47;;;10.50;1.00;;;;;;5093046;28;20772;-58
2023/03/29 07:40:22;;;;;;;0.70;0.40;;;10.50;1.00;;;;;;5091263;28;20418;-58
2023/03/29 07:42:51;;;;;;;1.02;0.40;;;10.50;4.50;;;;;;5092920;28;20424;-59
2023/03/29 07:45:20;;;;;;;0.70;0.40;;;10.50;1.80;;;;;;5092248;28;20430;-58
2023/03/29 07:47:48;;;;;;;1.20;0.40;;;10.50;99.90;;;;;;5089200;28;20829;-59
2023/03/29 07:50:16;;;;;;;1.17;0.40;;;10.50;99.90;;;;;;5091783;28;20427;-59
2023/03/29 07:52:44;;;;;;;0.70;0.40;;;10.60;1.00;;;;;;5091477;28;20418;-59
2023/03/29 07:55:13;;;;;;;0.75;0.40;;;10.70;1.00;;;;;;5091250;28;20429;-59
2023/03/29 07:57:43;;;;;;;1.65;0.40;;;10.70;1.00;;;;;;5097119;28;20461;-59
2023/03/29 08:00:13;;;;;;;0.90;0.40;;;10.70;1.00;;;;;;5096117;28;20437;-58
2023/03/29 08:02:42;;;;;;;0.80;0.40;;;10.70;1.00;;;;;;5089533;28;20437;-59
2023/03/29 08:05:11;;;;;;;1.25;0.40;;;10.80;1.00;;;;;;5090601;28;20429;-59
2023/03/29 08:07:40;;;;;;;1.10;0.40;;;10.90;1.00;;;;;;5097680;28;20795;-58
2023/03/29 08:10:09;;;;;;;0.80;0.50;;;11.10;1.00;;;;;;5092878;28;20882;-57
2023/03/29 08:12:36;;;;;;;0.70;0.40;;;11.10;1.00;;;;;;5093470;28;20433;-59
2023/03/29 08:15:06;;;;;;;0.70;0.40;;;11.30;1.00;;;;;;5090650;28;20421;-59
2023/03/29 08:17:33;;;;;;;1.08;0.40;;;11.40;1.00;;;;;;5090373;28;20422;-58
2023/03/29 08:20:02;;;;;;;1.00;0.40;;;11.60;99.90;;;;;;5091150;28;20422;-59
2023/03/29 08:22:29;;;;;;;0.80;0.40;;;11.60;99.90;;;;;;5094381;28;20435;-58
2023/03/29 08:24:56;;;;;;;1.10;0.40;;;11.50;99.90;;;;;;5090150;28;20731;-59
2023/03/29 08:27:23;;;;;;;0.75;0.50;;;11.50;99.90;;;;;;5096707;28;20436;-59
2023/03/29 08:29:51;;;;;;;1.63;0.50;;;11.60;99.90;;;;;;5109192;28;20879;-59
2023/03/29 08:32:20;;;;;;;0.80;0.50;;;11.70;99.90;;;;;;5112605;28;20428;-59
2023/03/29 08:34:47;;;;;;;1.30;0.50;;;11.70;99.90;;;;;;5091463;28;20429;-59
2023/03/29 08:37:15;;;;;;;0.80;0.40;;;11.80;99.90;;;;;;5088624;28;20433;-59
2023/03/29 08:39:43;;;;;;;1.10;0.40;;;11.90;99.90;;;;;;5091482;28;20414;-59
2023/03/29 08:42:35;;;;;;;0.90;0.40;;;11.70;99.90;;;;;;5090931;28;20433;-59
2023/03/29 08:45:09;;;;;;;0.70;0.30;;;11.70;99.90;;;;;;5093713;28;20429;-59
2023/03/29 08:47:49;;;;;;;0.80;0.40;;;11.70;99.90;;;;;;5093287;28;20429;-59
2023/03/29 08:50:19;;;;;;;0.70;0.30;;;11.70;99.90;;;;;;5094155;28;20484;-58
2023/03/29 08:52:51;;;;;;;0.80;0.50;;;11.70;99.90;;;;;;5093073;28;21001;-58
2023/03/29 08:55:27;;;;;;;0.90;0.40;;;11.70;99.90;;;;;;5095362;28;20452;-58
2023/03/29 08:57:55;;;;;;;0.80;0.40;;;11.70;99.90;;;;;;5094763;28;20665;-58
2023/03/29 09:00:32;;;;;;;1.40;0.50;;;11.70;99.90;;;;;;5115947;28;20463;-58
2023/03/29 09:03:01;;;;;;;0.60;0.35;;;11.80;99.90;;;;;;5116411;28;20459;-58
2023/03/29 09:05:34;;;;;;;1.50;0.40;;;11.80;99.90;;;;;;5111443;28;20887;-57
2023/03/29 09:08:01;;;;;;;0.60;0.40;;;11.80;99.90;;;;;;5105366;28;20452;-59
2023/03/29 09:10:38;;;;;;;0.60;0.40;;;11.90;99.90;;;;;;5094908;28;20426;-57
2023/03/29 09:13:24;;;;;;;1.00;0.40;;;12.00;99.90;;;;;;5095041;28;20416;-59
2023/03/29 09:15:59;;;;;;;1.10;0.40;;;12.00;99.90;;;;;;5104440;28;20428;-57
2023/03/29 09:18:36;;;;;;;0.70;0.50;;;12.20;99.90;;;;;;5110484;28;20432;-57
2023/03/29 09:21:11;;;;;;;0.70;0.40;;;12.30;99.90;;;;;;5109132;28;20532;-58
2023/03/29 09:24:02;;;;;;;0.60;0.40;;;12.40;59.30;;;;;;5096705;28;20466;-58
2023/03/29 09:26:37;;;;;;;1.30;0.40;;;12.40;40.10;;;;;;5093613;28;20855;-58
2023/03/29 09:29:16;;;;;;;1.10;0.40;;;12.60;34.60;;;;;;5102550;28;20408;-58
2023/03/29 09:31:44;;;;;;;1.30;0.40;;;12.60;13.80;;;;;;5095003;28;20457;-59
2023/03/29 09:34:14;;;;;;;0.50;0.40;;;12.70;13.70;;;;;;5094857;28;20457;-57
2023/03/29 09:36:50;;;;;;;0.50;0.30;;;12.80;1.00;;;;;;5098900;28;20436;-57
2023/03/29 09:39:17;;;;;;;1.15;0.40;;;12.80;1.00;;;;;;5097023;28;20546;-57
2023/03/29 09:41:49;;;;;;;1.15;0.38;;;12.80;1.00;;;;;;5111994;28;20460;-58
2023/03/29 09:44:21;;;;;;;0.82;0.40;;;12.80;1.00;;;;;;5111923;28;20428;-57
2023/03/29 09:46:52;;;;;;;1.23;0.40;;;12.90;1.00;;;;;;5111524;28;20432;-58
2023/03/29 09:49:26;;;;;;;0.60;0.40;;;13.10;1.00;;;;;;5098070;28;20865;-58
2023/03/29 09:51:57;;;;;;;0.82;0.40;;;13.30;1.00;;;;;;5093297;28;20537;-58
2023/03/29 09:54:24;;;;;;;0.63;0.40;;;13.40;1.00;;;;;;5109741;28;20701;-58
2023/03/29 09:56:51;;;;;;;1.33;0.40;;;13.40;1.00;;;;;;5113270;28;20428;-58
2023/03/29 09:59:18;;;;;;;0.98;0.50;;;13.50;1.00;;;;;;5114381;28;20512;-58
2023/03/29 10:01:45;;;;;;;0.90;0.50;;;13.70;1.00;;;;;;5111287;28;20451;-59
2023/03/29 10:04:13;;;;;;;1.50;0.40;;;13.70;1.00;;;;;;5103264;28;20433;-58
2023/03/29 10:06:48;;;;;;;1.08;0.40;;;13.70;1.00;;;;;;5093763;28;20444;-58
2023/03/29 10:09:17;;;;;;;0.70;0.40;;;13.70;1.00;;;;;;5092273;28;20425;-58
2023/03/29 10:11:48;;;;;;;0.90;0.40;;;13.90;1.00;;;;;;5092111;28;20960;-58
2023/03/29 10:14:19;;;;;;;0.60;0.40;;;14.00;1.00;;;;;;5097962;28;20485;-58
2023/03/29 10:16:47;;;;;;;1.20;0.40;;;14.20;1.00;;;;;;5099275;28;20872;-58
2023/03/29 10:19:23;;;;;;;0.80;0.40;;;14.40;1.00;;;;;;5094958;28;20547;-59
2023/03/29 10:21:52;;;;;;;1.60;0.50;;;14.50;1.00;;;;;;5114339;28;20428;-59
2023/03/29 10:24:21;;;;;;;1.80;0.40;;;14.60;1.00;;;;;;5113586;28;20428;-61
2023/03/29 10:26:52;;;;;;;0.70;0.40;;;14.60;1.00;;;;;;5113694;28;20516;-58
2023/03/29 10:29:19;;;;;;;0.60;0.30;;;14.70;1.00;;;;;;5107279;28;20478;-58
2023/03/29 10:31:46;;;;;;;0.60;0.30;;;14.60;1.00;;;;;;5099898;28;20910;-58
2023/03/29 10:34:15;;;;;;;0.45;0.30;;;14.80;1.00;;;;;;5092401;28;20882;-58
2023/03/29 10:36:47;;;;;;;0.60;0.40;;;15.10;1.00;;;;;;5093669;28;20426;-58
2023/03/29 10:39:16;;;;;;;0.90;0.50;;;15.40;1.00;;;;;;5100853;28;20440;-58
2023/03/29 10:41:44;;;;;;;1.40;0.40;;;15.50;1.00;;;;;;5100665;28;20531;-58
2023/03/29 10:44:27;;;;;;;0.70;0.40;;;15.50;1.00;;;;;;5091482;28;20832;-58
2023/03/29 10:46:55;;;;;;;0.70;0.38;;;16.10;1.00;;;;;;5093561;28;20432;-61
2023/03/29 10:49:24;;;;;;;0.60;0.40;;;16.50;1.00;;;;;;5093387;28;20433;-64
2023/03/29 10:51:52;;;;;;;1.40;0.40;;;16.60;1.00;;;;;;5092947;28;21112;-64
2023/03/29 10:54:24;;;;;;;1.00;0.50;;;17.00;1.00;;;;;;5092858;28;20429;-64
2023/03/29 10:56:55;;;;;;;0.80;0.30;;;17.10;1.00;;;;;;5093240;28;20430;-64
2023/03/29 10:59:31;;;;;;;0.60;0.30;;;16.80;1.00;;;;;;5105553;28;20473;-64
2023/03/29 11:02:10;;;;;;;0.80;0.40;;;16.90;1.00;;;;;;5096016;28;20825;-65
2023/03/29 11:04:45;;;;;;;0.60;0.30;;;17.00;1.00;;;;;;5092512;28;20431;-64
2023/03/29 11:07:26;;;;;;;0.77;0.40;;;16.90;1.00;;;;;;5110764;28;20459;-65
2023/03/29 11:10:03;;;;;;;0.82;0.40;;;16.40;1.00;;;;;;5111199;28;20420;-59
2023/03/29 11:12:38;;;;;;;1.15;0.50;;;16.20;1.00;;;;;;5109098;28;20843;-59
2023/03/29 11:15:20;;;;;;;1.20;0.40;;;16.20;1.00;;;;;;5097577;28;20417;-60
2023/03/29 11:17:58;;;;;;;1.93;0.40;;;16.20;1.00;;;;;;5112607;28;20828;-59
2023/03/29 11:20:32;;;;;;;0.95;0.40;;;16.30;1.00;;;;;;5095222;28;20437;-59
2023/03/29 11:23:13;;;;;;;1.00;0.33;;;16.40;1.00;;;;;;5090406;28;20441;-60
2023/03/29 11:25:52;;;;;;;0.70;0.40;;;16.90;1.00;;;;;;5089404;28;20452;-59
2023/03/29 11:28:27;;;;;;;0.68;0.40;;;17.40;1.00;;;;;;5093694;28;20425;-59
2023/03/29 11:31:01;;;;;;;0.75;0.40;;;17.40;1.00;;;;;;5107058;28;20438;-59
2023/03/29 11:33:41;;;;;;;0.60;0.40;;;17.30;1.00;;;;;;5093268;28;20436;-60
2023/03/29 11:36:15;;;;;;;0.50;0.30;;;17.30;1.00;;;;;;5087875;28;20426;-61
2023/03/29 11:38:55;;;;;;;0.70;0.40;;;17.50;1.00;;;;;;5095056;28;20459;-62
2023/03/29 11:41:26;;;;;;;0.80;0.40;;;17.40;1.00;;;;;;5094811;28;20446;-60
2023/03/29 11:43:57;;;;;;;0.80;0.40;;;17.30;1.00;;;;;;5094695;28;20439;-60
2023/03/29 11:46:28;;;;;;;0.75;0.30;;;17.20;1.00;;;;;;5095895;28;20432;-60
2023/03/29 11:49:13;;;;;;;0.65;0.40;;;17.30;1.00;;;;;;5105335;28;20438;-59
2023/03/29 11:51:46;;;;;;;0.77;0.40;;;17.20;1.00;;;;;;5093871;28;20865;-60
2023/03/29 11:54:17;;;;;;;1.58;0.60;;;17.00;1.00;;;;;;5098598;28;20458;-60
2023/03/29 11:56:51;;;;;;;1.30;0.40;;;16.90;1.00;;;;;;5108161;28;20739;-63
2023/03/29 11:59:23;;;;;;;0.60;0.40;;;16.80;1.00;;;;;;5103510;28;20512;-63
2023/03/29 12:01:55;;;;;;;0.50;0.30;;;16.80;1.00;;;;;;5099457;28;20424;-63
2023/03/29 12:04:25;;;;;;;0.70;0.40;;;16.90;1.00;;;;;;5106169;28;20483;-63
2023/03/29 12:07:03;;;;;;;0.88;0.40;;;17.30;1.00;;;;;;5091769;28;20812;-63
2023/03/29 12:09:34;;;;;;;0.90;0.30;;;17.90;1.00;;;;;;5090159;28;20592;-63
2023/03/29 12:12:10;;;;;;;0.65;0.25;;;18.00;1.00;;;;;;5103345;28;20437;-63
2023/03/29 12:14:59;;;;;;;0.60;0.30;;;18.00;1.00;;;;;;5089198;28;20434;-63
2023/03/29 12:17:32;;;;;;;0.50;0.30;;;17.90;1.00;;;;;;5089384;28;20438;-63
2023/03/29 12:20:11;;;;;;;0.90;0.30;;;18.00;1.00;;;;;;5094654;28;20428;-63
2023/03/29 12:22:38;;;;;;;0.80;0.40;;;18.10;1.00;;;;;;5083841;28;20441;-63
2023/03/29 12:25:10;;;;;;;0.90;0.40;;;18.10;1.00;;;;;;5093629;28;20433;-63
2023/03/29 12:27:47;;;;;;;0.73;0.30;;;18.30;1.00;;;;;;5098118;28;20422;-62
2023/03/29 12:30:46;;;;;;;0.70;0.30;;;18.30;1.00;;;;;;5096694;28;20430;-62
2023/03/29 12:33:34;;;;;;;0.60;0.40;;;18.10;1.00;;;;;;5110893;28;20436;-64
2023/03/29 12:36:15;;;;;;;0.60;0.30;;;18.10;1.00;;;;;;5109785;28;20574;-63
2023/03/29 12:38:43;;;;;;;0.70;0.30;;;17.90;1.00;;;;;;5100860;28;20480;-62
2023/03/29 12:41:17;;;;;;;0.60;0.30;;;17.90;1.00;;;;;;5093671;28;20460;-62
2023/03/29 12:43:47;;;;;;;0.77;0.25;;;18.00;1.00;;;;;;5097484;28;20427;-63
2023/03/29 12:46:17;;;;;;;0.50;0.30;;;17.70;1.00;;;;;;5112862;28;20587;-64
2023/03/29 12:48:50;;;;;;;0.60;0.30;;;17.70;1.00;;;;;;5109381;28;20426;-63
2023/03/29 12:51:19;;;;;;;0.50;0.23;;;17.40;1.00;;;;;;5092938;28;20879;-63
2023/03/29 12:53:50;;;;;;;0.50;0.20;;;17.20;1.00;;;;;;5092643;28;20418;-64
2023/03/29 12:56:20;;;;;;;1.58;0.40;;;17.10;1.00;;;;;;5104349;28;21089;-64
2023/03/29 12:58:56;;;;;;;0.75;0.30;;;17.10;1.00;;;;;;5093050;28;20780;-62
2023/03/29 13:01:27;;;;;;;0.50;0.30;;;17.00;1.00;;;;;;5095900;28;20903;-62
2023/03/29 13:04:12;;;;;;;0.50;0.30;;;17.10;1.00;;;;;;5099551;28;21082;-63
2023/03/29 13:07:01;;;;;;;0.60;0.30;;;17.10;1.00;;;;;;5096246;28;20437;-64
2023/03/29 13:09:31;;;;;;;1.70;0.30;;;17.00;1.00;;;;;;5096329;28;20489;-64
2023/03/29 13:12:05;;;;;;;0.63;0.30;;;16.90;1.00;;;;;;5093310;28;20430;-64
2023/03/29 13:14:37;;;;;;;1.00;0.30;;;16.90;1.00;;;;;;5093085;28;20433;-64
2023/03/29 13:17:06;;;;;;;0.65;0.30;;;16.70;1.00;;;;;;5096686;28;20432;-63
2023/03/29 13:19:39;;;;;;;0.85;0.30;;;16.60;1.00;;;;;;5096717;28;20445;-64
2023/03/29 13:22:17;;;;;;;0.60;0.30;;;16.70;1.00;;;;;;5090751;28;20433;-64